sensor_id;sensor_type;location;lat;lon;timestamp;temperature;humidity
10089;DHT22;51898;49.864;8.550;2024-01-25T00:00:07;8.50;80.70
10089;DHT22;51898;49.864;8.550;2024-01-25T00:03:09;8.40;80.50
10089;DHT22;51898;49.864;8.550;2024-01-25T00:06:12;8.40;79.80
10089;DHT22;51898;49.864;8.550;2024-01-25T00:09:14;8.30;79.70
10089;DHT22;51898;49.864;8.550;2024-01-25T00:12:16;8.30;79.70
10089;DHT22;51898;49.864;8.550;2024-01-25T00:15:18;8.30;79.70
10089;DHT22;51898;49.864;8.550;2024-01-25T00:18:20;8.30;79.90
10089;DHT22;51898;49.864;8.550;2024-01-25T00:21:22;8.20;80.20
10089;DHT22;51898;49.864;8.550;2024-01-25T00:24:25;8.20;80.30
10089;DHT22;51898;49.864;8.550;2024-01-25T00:27:27;8.10;81.00
10089;DHT22;51898;49.864;8.550;2024-01-25T00:30:29;8.00;81.40
10089;DHT22;51898;49.864;8.550;2024-01-25T00:33:31;8.00;81.70
10089;DHT22;51898;49.864;8.550;2024-01-25T00:36:34;8.00;81.90
10089;DHT22;51898;49.864;8.550;2024-01-25T00:39:36;8.00;81.90
10089;DHT22;51898;49.864;8.550;2024-01-25T00:42:46;8.00;81.80
10089;DHT22;51898;49.864;8.550;2024-01-25T00:45:55;8.00;81.60
10089;DHT22;51898;49.864;8.550;2024-01-25T00:48:57;8.00;81.30
10089;DHT22;51898;49.864;8.550;2024-01-25T00:52:00;8.00;81.00
10089;DHT22;51898;49.864;8.550;2024-01-25T00:55:05;8.10;80.80
10089;DHT22;51898;49.864;8.550;2024-01-25T00:58:07;8.00;80.80
10089;DHT22;51898;49.864;8.550;2024-01-25T01:01:09;8.00;80.60
10089;DHT22;51898;49.864;8.550;2024-01-25T01:04:12;8.10;80.40
10089;DHT22;51898;49.864;8.550;2024-01-25T01:07:14;8.10;80.20
10089;DHT22;51898;49.864;8.550;2024-01-25T01:10:17;8.10;80.10
10089;DHT22;51898;49.864;8.550;2024-01-25T01:13:18;8.10;80.20
10089;DHT22;51898;49.864;8.550;2024-01-25T01:16:20;8.10;80.30
10089;DHT22;51898;49.864;8.550;2024-01-25T01:19:23;8.10;80.50
10089;DHT22;51898;49.864;8.550;2024-01-25T01:22:24;8.10;80.90
10089;DHT22;51898;49.864;8.550;2024-01-25T01:25:26;8.10;81.20
10089;DHT22;51898;49.864;8.550;2024-01-25T01:28:28;8.10;81.30
10089;DHT22;51898;49.864;8.550;2024-01-25T01:31:30;8.00;81.20
10089;DHT22;51898;49.864;8.550;2024-01-25T01:34:32;8.00;81.60
10089;DHT22;51898;49.864;8.550;2024-01-25T01:37:34;8.00;81.70
10089;DHT22;51898;49.864;8.550;2024-01-25T01:40:36;8.00;81.80
10089;DHT22;51898;49.864;8.550;2024-01-25T01:43:38;8.00;81.80
10089;DHT22;51898;49.864;8.550;2024-01-25T01:46:40;8.00;81.80
10089;DHT22;51898;49.864;8.550;2024-01-25T01:49:42;8.00;81.70
10089;DHT22;51898;49.864;8.550;2024-01-25T01:52:45;8.00;81.80
10089;DHT22;51898;49.864;8.550;2024-01-25T01:55:47;8.00;81.80
10089;DHT22;51898;49.864;8.550;2024-01-25T01:58:49;8.00;81.90
10089;DHT22;51898;49.864;8.550;2024-01-25T02:01:52;8.00;82.00
10089;DHT22;51898;49.864;8.550;2024-01-25T02:04:54;8.00;82.00
10089;DHT22;51898;49.864;8.550;2024-01-25T02:07:56;7.90;82.00
10089;DHT22;51898;49.864;8.550;2024-01-25T02:10:58;7.90;81.90
10089;DHT22;51898;49.864;8.550;2024-01-25T02:14:00;7.90;82.00
10089;DHT22;51898;49.864;8.550;2024-01-25T02:17:02;7.90;81.90
10089;DHT22;51898;49.864;8.550;2024-01-25T02:20:04;7.90;81.90
10089;DHT22;51898;49.864;8.550;2024-01-25T02:23:07;7.80;81.80
10089;DHT22;51898;49.864;8.550;2024-01-25T02:26:08;7.80;81.80
10089;DHT22;51898;49.864;8.550;2024-01-25T02:29:10;7.70;82.00
10089;DHT22;51898;49.864;8.550;2024-01-25T02:32:12;7.60;82.30
10089;DHT22;51898;49.864;8.550;2024-01-25T02:39:29;7.50;83.00
10089;DHT22;51898;49.864;8.550;2024-01-25T02:42:31;7.50;83.30
10089;DHT22;51898;49.864;8.550;2024-01-25T02:45:32;7.50;83.30
10089;DHT22;51898;49.864;8.550;2024-01-25T02:48:34;7.50;83.20
10089;DHT22;51898;49.864;8.550;2024-01-25T02:51:36;7.50;83.10
10089;DHT22;51898;49.864;8.550;2024-01-25T02:54:38;7.50;83.00
10089;DHT22;51898;49.864;8.550;2024-01-25T02:57:40;7.50;83.00
10089;DHT22;51898;49.864;8.550;2024-01-25T03:00:41;7.50;83.00
10089;DHT22;51898;49.864;8.550;2024-01-25T03:03:44;7.50;83.00
10089;DHT22;51898;49.864;8.550;2024-01-25T03:06:45;7.50;83.00
10089;DHT22;51898;49.864;8.550;2024-01-25T03:09:47;7.50;83.10
10089;DHT22;51898;49.864;8.550;2024-01-25T03:12:49;7.40;83.40
10089;DHT22;51898;49.864;8.550;2024-01-25T03:15:51;7.50;83.10
10089;DHT22;51898;49.864;8.550;2024-01-25T03:18:53;7.60;82.80
10089;DHT22;51898;49.864;8.550;2024-01-25T03:21:55;7.60;82.60
10089;DHT22;51898;49.864;8.550;2024-01-25T03:24:56;7.50;82.80
10089;DHT22;51898;49.864;8.550;2024-01-25T03:27:59;7.60;82.60
10089;DHT22;51898;49.864;8.550;2024-01-25T03:31:01;7.60;82.50
10089;DHT22;51898;49.864;8.550;2024-01-25T03:34:03;7.50;82.50
10089;DHT22;51898;49.864;8.550;2024-01-25T03:37:07;7.50;82.50
10089;DHT22;51898;49.864;8.550;2024-01-25T03:40:09;7.50;82.50
10089;DHT22;51898;49.864;8.550;2024-01-25T03:43:11;7.50;82.40
10089;DHT22;51898;49.864;8.550;2024-01-25T03:46:22;7.50;82.60
10089;DHT22;51898;49.864;8.550;2024-01-25T03:49:24;7.50;82.70
10089;DHT22;51898;49.864;8.550;2024-01-25T03:52:26;7.50;82.50
10089;DHT22;51898;49.864;8.550;2024-01-25T03:55:31;7.60;82.40
10089;DHT22;51898;49.864;8.550;2024-01-25T03:58:33;7.60;82.40
10089;DHT22;51898;49.864;8.550;2024-01-25T04:01:41;7.60;82.30
10089;DHT22;51898;49.864;8.550;2024-01-25T04:04:43;7.60;82.40
10089;DHT22;51898;49.864;8.550;2024-01-25T04:07:45;7.60;82.40
10089;DHT22;51898;49.864;8.550;2024-01-25T04:10:46;7.70;82.40
10089;DHT22;51898;49.864;8.550;2024-01-25T04:13:48;7.70;82.30
10089;DHT22;51898;49.864;8.550;2024-01-25T04:16:49;7.60;82.30
10089;DHT22;51898;49.864;8.550;2024-01-25T04:19:51;7.60;82.60
10089;DHT22;51898;49.864;8.550;2024-01-25T04:22:53;7.60;82.50
10089;DHT22;51898;49.864;8.550;2024-01-25T04:25:55;7.60;82.60
10089;DHT22;51898;49.864;8.550;2024-01-25T04:28:57;7.60;82.70
10089;DHT22;51898;49.864;8.550;2024-01-25T04:31:58;7.60;82.80
10089;DHT22;51898;49.864;8.550;2024-01-25T04:35:00;7.50;82.80
10089;DHT22;51898;49.864;8.550;2024-01-25T04:38:02;7.60;82.90
10089;DHT22;51898;49.864;8.550;2024-01-25T04:41:04;7.50;82.90
10089;DHT22;51898;49.864;8.550;2024-01-25T04:44:07;7.50;83.00
10089;DHT22;51898;49.864;8.550;2024-01-25T04:47:09;7.40;83.20
10089;DHT22;51898;49.864;8.550;2024-01-25T04:50:11;7.30;83.50
10089;DHT22;51898;49.864;8.550;2024-01-25T04:53:13;7.20;83.80
10089;DHT22;51898;49.864;8.550;2024-01-25T04:56:14;7.20;83.90
10089;DHT22;51898;49.864;8.550;2024-01-25T04:59:16;7.10;84.40
10089;DHT22;51898;49.864;8.550;2024-01-25T05:02:18;7.00;84.80
10089;DHT22;51898;49.864;8.550;2024-01-25T05:05:20;6.90;84.90
10089;DHT22;51898;49.864;8.550;2024-01-25T05:08:22;6.80;85.20
10089;DHT22;51898;49.864;8.550;2024-01-25T05:11:23;6.70;85.80
10089;DHT22;51898;49.864;8.550;2024-01-25T05:14:25;6.60;85.90
10089;DHT22;51898;49.864;8.550;2024-01-25T05:17:27;6.60;86.10
10089;DHT22;51898;49.864;8.550;2024-01-25T05:20:28;6.50;86.20
10089;DHT22;51898;49.864;8.550;2024-01-25T05:23:34;6.50;86.60
10089;DHT22;51898;49.864;8.550;2024-01-25T05:26:36;6.50;86.60
10089;DHT22;51898;49.864;8.550;2024-01-25T05:29:37;6.40;86.50
10089;DHT22;51898;49.864;8.550;2024-01-25T05:32:39;6.30;86.90
10089;DHT22;51898;49.864;8.550;2024-01-25T05:35:41;6.30;86.90
10089;DHT22;51898;49.864;8.550;2024-01-25T05:38:43;6.30;87.00
10089;DHT22;51898;49.864;8.550;2024-01-25T05:41:44;6.20;87.30
10089;DHT22;51898;49.864;8.550;2024-01-25T05:44:46;6.10;87.80
10089;DHT22;51898;49.864;8.550;2024-01-25T05:47:48;6.10;88.10
10089;DHT22;51898;49.864;8.550;2024-01-25T05:50:52;6.10;88.40
10089;DHT22;51898;49.864;8.550;2024-01-25T05:53:53;6.10;88.30
10089;DHT22;51898;49.864;8.550;2024-01-25T05:56:55;6.10;88.20
10089;DHT22;51898;49.864;8.550;2024-01-25T05:59:56;6.10;88.10
10089;DHT22;51898;49.864;8.550;2024-01-25T06:02:58;6.00;88.10
10089;DHT22;51898;49.864;8.550;2024-01-25T06:06:00;6.00;88.20
10089;DHT22;51898;49.864;8.550;2024-01-25T06:09:02;6.00;88.40
10089;DHT22;51898;49.864;8.550;2024-01-25T06:12:13;5.90;88.70
10089;DHT22;51898;49.864;8.550;2024-01-25T06:15:16;5.80;89.10
10089;DHT22;51898;49.864;8.550;2024-01-25T06:18:17;5.80;89.10
10089;DHT22;51898;49.864;8.550;2024-01-25T06:21:21;5.80;89.10
10089;DHT22;51898;49.864;8.550;2024-01-25T06:24:23;5.70;89.00
10089;DHT22;51898;49.864;8.550;2024-01-25T06:27:25;5.60;89.30
10089;DHT22;51898;49.864;8.550;2024-01-25T06:30:26;5.50;90.00
10089;DHT22;51898;49.864;8.550;2024-01-25T06:33:28;5.40;90.30
10089;DHT22;51898;49.864;8.550;2024-01-25T06:36:30;5.40;90.10
10089;DHT22;51898;49.864;8.550;2024-01-25T06:39:31;5.30;90.40
10089;DHT22;51898;49.864;8.550;2024-01-25T06:42:33;5.40;90.50
10089;DHT22;51898;49.864;8.550;2024-01-25T06:45:35;5.30;90.50
10089;DHT22;51898;49.864;8.550;2024-01-25T06:48:37;5.20;90.50
10089;DHT22;51898;49.864;8.550;2024-01-25T06:51:39;5.20;90.60
10089;DHT22;51898;49.864;8.550;2024-01-25T06:54:41;5.10;90.70
10089;DHT22;51898;49.864;8.550;2024-01-25T06:57:42;5.10;90.80
10089;DHT22;51898;49.864;8.550;2024-01-25T07:00:45;5.10;91.10
10089;DHT22;51898;49.864;8.550;2024-01-25T07:03:48;5.00;91.00
10089;DHT22;51898;49.864;8.550;2024-01-25T07:06:54;5.00;91.40
10089;DHT22;51898;49.864;8.550;2024-01-25T07:09:56;5.00;91.70
10089;DHT22;51898;49.864;8.550;2024-01-25T07:12:58;4.90;91.90
10089;DHT22;51898;49.864;8.550;2024-01-25T07:16:00;4.90;91.80
10089;DHT22;51898;49.864;8.550;2024-01-25T07:19:02;4.80;91.80
10089;DHT22;51898;49.864;8.550;2024-01-25T07:22:04;4.80;92.20
10089;DHT22;51898;49.864;8.550;2024-01-25T07:25:06;4.70;92.20
10089;DHT22;51898;49.864;8.550;2024-01-25T07:28:08;4.70;92.30
10089;DHT22;51898;49.864;8.550;2024-01-25T07:31:10;4.80;92.50
10089;DHT22;51898;49.864;8.550;2024-01-25T07:34:12;4.80;92.50
10089;DHT22;51898;49.864;8.550;2024-01-25T07:37:14;4.80;92.70
10089;DHT22;51898;49.864;8.550;2024-01-25T07:40:16;4.80;92.70
10089;DHT22;51898;49.864;8.550;2024-01-25T07:43:18;4.80;92.60
10089;DHT22;51898;49.864;8.550;2024-01-25T07:46:19;4.80;92.50
10089;DHT22;51898;49.864;8.550;2024-01-25T07:49:21;4.90;92.50
10089;DHT22;51898;49.864;8.550;2024-01-25T07:52:23;4.90;92.60
10089;DHT22;51898;49.864;8.550;2024-01-25T07:55:28;4.90;93.00
10089;DHT22;51898;49.864;8.550;2024-01-25T07:58:31;5.00;93.00
10089;DHT22;51898;49.864;8.550;2024-01-25T08:01:33;5.10;92.70
10089;DHT22;51898;49.864;8.550;2024-01-25T08:04:35;5.20;92.50
10089;DHT22;51898;49.864;8.550;2024-01-25T08:07:37;5.30;92.30
10089;DHT22;51898;49.864;8.550;2024-01-25T08:10:39;5.30;92.00
10089;DHT22;51898;49.864;8.550;2024-01-25T08:13:42;5.40;91.70
10089;DHT22;51898;49.864;8.550;2024-01-25T08:16:44;5.50;91.20
10089;DHT22;51898;49.864;8.550;2024-01-25T08:19:46;5.50;90.80
10089;DHT22;51898;49.864;8.550;2024-01-25T08:22:51;5.60;90.70
10089;DHT22;51898;49.864;8.550;2024-01-25T08:25:53;5.70;90.40
10089;DHT22;51898;49.864;8.550;2024-01-25T08:28:55;5.80;90.20
10089;DHT22;51898;49.864;8.550;2024-01-25T08:31:56;5.90;89.80
10089;DHT22;51898;49.864;8.550;2024-01-25T08:34:58;6.00;89.50
10089;DHT22;51898;49.864;8.550;2024-01-25T08:38:01;6.10;89.10
10089;DHT22;51898;49.864;8.550;2024-01-25T08:41:04;6.10;88.50
10089;DHT22;51898;49.864;8.550;2024-01-25T08:44:06;6.20;88.00
10089;DHT22;51898;49.864;8.550;2024-01-25T08:47:07;6.20;87.80
10089;DHT22;51898;49.864;8.550;2024-01-25T08:50:10;6.30;87.60
10089;DHT22;51898;49.864;8.550;2024-01-25T08:53:13;6.40;87.40
10089;DHT22;51898;49.864;8.550;2024-01-25T08:56:15;6.50;87.10
10089;DHT22;51898;49.864;8.550;2024-01-25T08:59:16;6.70;87.00
10089;DHT22;51898;49.864;8.550;2024-01-25T09:02:19;6.80;86.50
10089;DHT22;51898;49.864;8.550;2024-01-25T09:05:23;7.00;85.90
10089;DHT22;51898;49.864;8.550;2024-01-25T09:08:26;7.10;85.60
10089;DHT22;51898;49.864;8.550;2024-01-25T09:11:28;7.20;85.00
10089;DHT22;51898;49.864;8.550;2024-01-25T09:14:30;7.40;84.80
10089;DHT22;51898;49.864;8.550;2024-01-25T09:17:34;7.50;84.30
10089;DHT22;51898;49.864;8.550;2024-01-25T09:20:36;7.60;84.30
10089;DHT22;51898;49.864;8.550;2024-01-25T09:23:38;7.70;83.80
10089;DHT22;51898;49.864;8.550;2024-01-25T09:26:40;7.90;83.40
10089;DHT22;51898;49.864;8.550;2024-01-25T09:29:42;8.10;82.40
10089;DHT22;51898;49.864;8.550;2024-01-25T09:32:44;8.20;82.20
10089;DHT22;51898;49.864;8.550;2024-01-25T09:35:48;8.40;81.60
10089;DHT22;51898;49.864;8.550;2024-01-25T09:38:52;8.50;81.00
10089;DHT22;51898;49.864;8.550;2024-01-25T09:41:54;8.60;80.60
10089;DHT22;51898;49.864;8.550;2024-01-25T09:44:56;8.60;80.50
10089;DHT22;51898;49.864;8.550;2024-01-25T09:47:58;8.60;80.00
10089;DHT22;51898;49.864;8.550;2024-01-25T09:51:00;8.60;80.30
10089;DHT22;51898;49.864;8.550;2024-01-25T09:54:04;8.70;80.00
10089;DHT22;51898;49.864;8.550;2024-01-25T09:57:14;8.80;80.70
10089;DHT22;51898;49.864;8.550;2024-01-25T10:00:19;8.90;80.90
10089;DHT22;51898;49.864;8.550;2024-01-25T10:03:21;9.10;80.50
10089;DHT22;51898;49.864;8.550;2024-01-25T10:06:23;9.30;80.00
10089;DHT22;51898;49.864;8.550;2024-01-25T10:09:25;9.40;79.30
10089;DHT22;51898;49.864;8.550;2024-01-25T10:12:27;9.50;78.80
10089;DHT22;51898;49.864;8.550;2024-01-25T10:15:29;9.70;78.60
10089;DHT22;51898;49.864;8.550;2024-01-25T10:18:30;9.80;77.80
10089;DHT22;51898;49.864;8.550;2024-01-25T10:21:35;9.90;77.20
10089;DHT22;51898;49.864;8.550;2024-01-25T10:24:39;10.00;76.50
10089;DHT22;51898;49.864;8.550;2024-01-25T10:27:41;10.00;76.10
10089;DHT22;51898;49.864;8.550;2024-01-25T10:30:44;10.00;75.60
10089;DHT22;51898;49.864;8.550;2024-01-25T10:33:47;10.00;75.50
10089;DHT22;51898;49.864;8.550;2024-01-25T10:36:50;10.10;75.30
10089;DHT22;51898;49.864;8.550;2024-01-25T10:39:55;10.10;74.80
10089;DHT22;51898;49.864;8.550;2024-01-25T10:42:57;10.20;74.70
10089;DHT22;51898;49.864;8.550;2024-01-25T10:45:59;10.30;74.40
10089;DHT22;51898;49.864;8.550;2024-01-25T10:49:07;10.30;74.60
10089;DHT22;51898;49.864;8.550;2024-01-25T10:52:09;10.30;74.30
10089;DHT22;51898;49.864;8.550;2024-01-25T10:55:12;10.30;74.80
10089;DHT22;51898;49.864;8.550;2024-01-25T10:58:16;10.40;73.90
10089;DHT22;51898;49.864;8.550;2024-01-25T11:01:18;10.30;73.90
10089;DHT22;51898;49.864;8.550;2024-01-25T11:04:20;10.20;72.70
10089;DHT22;51898;49.864;8.550;2024-01-25T11:07:22;10.20;73.10
10089;DHT22;51898;49.864;8.550;2024-01-25T11:10:26;10.30;74.50
10089;DHT22;51898;49.864;8.550;2024-01-25T11:13:29;10.30;72.90
10089;DHT22;51898;49.864;8.550;2024-01-25T11:16:32;10.20;72.00
10089;DHT22;51898;49.864;8.550;2024-01-25T11:19:38;10.30;72.40
10089;DHT22;51898;49.864;8.550;2024-01-25T11:22:44;10.40;72.70
10089;DHT22;51898;49.864;8.550;2024-01-25T11:25:47;10.40;72.10
10089;DHT22;51898;49.864;8.550;2024-01-25T11:28:49;10.40;73.00
10089;DHT22;51898;49.864;8.550;2024-01-25T11:31:51;10.60;72.30
10089;DHT22;51898;49.864;8.550;2024-01-25T11:34:58;10.60;72.00
10089;DHT22;51898;49.864;8.550;2024-01-25T11:38:01;10.50;71.50
10089;DHT22;51898;49.864;8.550;2024-01-25T11:41:03;10.50;70.90
10089;DHT22;51898;49.864;8.550;2024-01-25T11:44:04;10.60;69.10
10089;DHT22;51898;49.864;8.550;2024-01-25T11:47:06;10.70;69.90
10089;DHT22;51898;49.864;8.550;2024-01-25T11:50:11;10.90;70.00
10089;DHT22;51898;49.864;8.550;2024-01-25T11:53:13;11.00;69.70
10089;DHT22;51898;49.864;8.550;2024-01-25T11:56:23;11.10;69.00
10089;DHT22;51898;49.864;8.550;2024-01-25T11:59:26;11.20;68.10
10089;DHT22;51898;49.864;8.550;2024-01-25T12:02:28;11.30;67.20
10089;DHT22;51898;49.864;8.550;2024-01-25T12:05:30;11.40;67.50
10089;DHT22;51898;49.864;8.550;2024-01-25T12:08:33;11.30;65.80
10089;DHT22;51898;49.864;8.550;2024-01-25T12:11:35;11.30;65.70
10089;DHT22;51898;49.864;8.550;2024-01-25T12:14:37;11.20;65.50
10089;DHT22;51898;49.864;8.550;2024-01-25T12:17:39;11.00;65.10
10089;DHT22;51898;49.864;8.550;2024-01-25T12:20:42;11.10;65.70
10089;DHT22;51898;49.864;8.550;2024-01-25T12:23:44;11.30;66.10
10089;DHT22;51898;49.864;8.550;2024-01-25T12:26:47;11.40;66.10
10089;DHT22;51898;49.864;8.550;2024-01-25T12:29:52;11.50;65.30
10089;DHT22;51898;49.864;8.550;2024-01-25T12:32:57;11.50;65.00
10089;DHT22;51898;49.864;8.550;2024-01-25T12:35:59;11.60;65.60
10089;DHT22;51898;49.864;8.550;2024-01-25T12:39:05;11.50;65.50
10089;DHT22;51898;49.864;8.550;2024-01-25T12:42:06;11.50;64.80
10089;DHT22;51898;49.864;8.550;2024-01-25T12:45:09;11.50;64.50
10089;DHT22;51898;49.864;8.550;2024-01-25T12:48:11;11.60;64.60
10089;DHT22;51898;49.864;8.550;2024-01-25T12:51:13;11.70;64.50
10089;DHT22;51898;49.864;8.550;2024-01-25T12:54:15;11.70;63.60
10089;DHT22;51898;49.864;8.550;2024-01-25T12:57:17;11.80;64.30
10089;DHT22;51898;49.864;8.550;2024-01-25T13:00:19;11.70;64.80
10089;DHT22;51898;49.864;8.550;2024-01-25T13:03:21;11.70;64.60
10089;DHT22;51898;49.864;8.550;2024-01-25T13:06:22;11.70;64.50
10089;DHT22;51898;49.864;8.550;2024-01-25T13:09:24;11.70;65.50
10089;DHT22;51898;49.864;8.550;2024-01-25T13:12:26;11.70;64.70
10089;DHT22;51898;49.864;8.550;2024-01-25T13:15:28;11.70;64.10
10089;DHT22;51898;49.864;8.550;2024-01-25T13:18:30;11.80;63.90
10089;DHT22;51898;49.864;8.550;2024-01-25T13:21:33;11.80;64.90
10089;DHT22;51898;49.864;8.550;2024-01-25T13:24:34;11.80;63.90
10089;DHT22;51898;49.864;8.550;2024-01-25T13:27:36;11.80;64.20
10089;DHT22;51898;49.864;8.550;2024-01-25T13:30:38;11.90;64.30
10089;DHT22;51898;49.864;8.550;2024-01-25T13:33:40;11.90;64.30
10089;DHT22;51898;49.864;8.550;2024-01-25T13:36:43;11.90;64.20
10089;DHT22;51898;49.864;8.550;2024-01-25T13:39:45;11.70;64.10
10089;DHT22;51898;49.864;8.550;2024-01-25T13:42:46;11.70;64.60
10089;DHT22;51898;49.864;8.550;2024-01-25T13:45:48;11.80;65.50
10089;DHT22;51898;49.864;8.550;2024-01-25T13:48:50;11.90;65.00
10089;DHT22;51898;49.864;8.550;2024-01-25T13:51:52;11.90;65.00
10089;DHT22;51898;49.864;8.550;2024-01-25T13:54:54;11.90;64.90
10089;DHT22;51898;49.864;8.550;2024-01-25T13:57:56;11.80;65.00
10089;DHT22;51898;49.864;8.550;2024-01-25T14:00:58;11.80;65.80
10089;DHT22;51898;49.864;8.550;2024-01-25T14:04:00;11.80;65.30
10089;DHT22;51898;49.864;8.550;2024-01-25T14:07:02;11.80;65.30
10089;DHT22;51898;49.864;8.550;2024-01-25T14:10:04;11.80;65.50
10089;DHT22;51898;49.864;8.550;2024-01-25T14:13:06;11.80;65.40
10089;DHT22;51898;49.864;8.550;2024-01-25T14:16:08;11.80;65.20
10089;DHT22;51898;49.864;8.550;2024-01-25T14:19:11;11.80;65.20
10089;DHT22;51898;49.864;8.550;2024-01-25T14:22:13;11.90;65.20
10089;DHT22;51898;49.864;8.550;2024-01-25T14:25:30;11.90;65.20
10089;DHT22;51898;49.864;8.550;2024-01-25T14:28:31;11.80;65.40
10089;DHT22;51898;49.864;8.550;2024-01-25T14:31:33;11.80;66.30
10089;DHT22;51898;49.864;8.550;2024-01-25T14:34:35;11.80;66.10
10089;DHT22;51898;49.864;8.550;2024-01-25T14:37:37;11.80;66.20
10089;DHT22;51898;49.864;8.550;2024-01-25T14:40:39;11.70;66.70
10089;DHT22;51898;49.864;8.550;2024-01-25T14:44:04;11.70;66.70
10089;DHT22;51898;49.864;8.550;2024-01-25T14:47:09;11.70;67.10
10089;DHT22;51898;49.864;8.550;2024-01-25T14:50:11;11.60;67.00
10089;DHT22;51898;49.864;8.550;2024-01-25T14:53:13;11.50;67.00
10089;DHT22;51898;49.864;8.550;2024-01-25T14:56:15;11.50;67.40
10089;DHT22;51898;49.864;8.550;2024-01-25T14:59:16;11.40;67.60
10089;DHT22;51898;49.864;8.550;2024-01-25T15:02:18;11.40;68.10
10089;DHT22;51898;49.864;8.550;2024-01-25T15:05:20;11.30;68.40
10089;DHT22;51898;49.864;8.550;2024-01-25T15:08:21;11.30;68.70
10089;DHT22;51898;49.864;8.550;2024-01-25T15:11:24;11.20;68.70
10089;DHT22;51898;49.864;8.550;2024-01-25T15:14:25;11.20;69.00
10089;DHT22;51898;49.864;8.550;2024-01-25T15:17:27;11.10;69.40
10089;DHT22;51898;49.864;8.550;2024-01-25T15:20:29;11.00;69.80
10089;DHT22;51898;49.864;8.550;2024-01-25T15:23:30;10.90;70.20
10089;DHT22;51898;49.864;8.550;2024-01-25T15:26:32;10.90;70.50
10089;DHT22;51898;49.864;8.550;2024-01-25T15:29:34;10.80;70.70
10089;DHT22;51898;49.864;8.550;2024-01-25T15:32:37;10.80;70.90
10089;DHT22;51898;49.864;8.550;2024-01-25T15:35:39;10.70;70.90
10089;DHT22;51898;49.864;8.550;2024-01-25T15:38:41;10.70;71.10
10089;DHT22;51898;49.864;8.550;2024-01-25T15:41:43;10.60;71.50
10089;DHT22;51898;49.864;8.550;2024-01-25T15:44:45;10.50;71.90
10089;DHT22;51898;49.864;8.550;2024-01-25T15:47:46;10.50;72.10
10089;DHT22;51898;49.864;8.550;2024-01-25T15:50:48;10.40;72.30
10089;DHT22;51898;49.864;8.550;2024-01-25T15:53:51;10.30;72.50
10089;DHT22;51898;49.864;8.550;2024-01-25T15:56:53;10.10;73.20
10089;DHT22;51898;49.864;8.550;2024-01-25T15:59:55;10.10;73.50
10089;DHT22;51898;49.864;8.550;2024-01-25T16:02:56;10.00;73.70
10089;DHT22;51898;49.864;8.550;2024-01-25T16:05:58;9.90;73.90
10089;DHT22;51898;49.864;8.550;2024-01-25T16:09:02;9.90;74.10
10089;DHT22;51898;49.864;8.550;2024-01-25T16:12:06;9.80;74.20
10089;DHT22;51898;49.864;8.550;2024-01-25T16:15:08;9.70;74.50
10089;DHT22;51898;49.864;8.550;2024-01-25T16:18:09;9.70;74.70
10089;DHT22;51898;49.864;8.550;2024-01-25T16:21:11;9.70;74.90
10089;DHT22;51898;49.864;8.550;2024-01-25T16:24:13;9.60;75.20
10089;DHT22;51898;49.864;8.550;2024-01-25T16:27:18;9.60;75.60
10089;DHT22;51898;49.864;8.550;2024-01-25T16:30:20;9.60;75.50
10089;DHT22;51898;49.864;8.550;2024-01-25T16:33:22;9.50;75.60
10089;DHT22;51898;49.864;8.550;2024-01-25T16:36:24;9.50;76.10
10089;DHT22;51898;49.864;8.550;2024-01-25T16:39:26;9.50;76.20
10089;DHT22;51898;49.864;8.550;2024-01-25T16:42:28;9.50;76.50
10089;DHT22;51898;49.864;8.550;2024-01-25T16:45:30;9.50;76.90
10089;DHT22;51898;49.864;8.550;2024-01-25T16:48:32;9.50;76.90
10089;DHT22;51898;49.864;8.550;2024-01-25T16:51:34;9.50;76.90
10089;DHT22;51898;49.864;8.550;2024-01-25T16:54:36;9.50;76.90
10089;DHT22;51898;49.864;8.550;2024-01-25T16:57:38;9.50;77.00
10089;DHT22;51898;49.864;8.550;2024-01-25T17:00:39;9.50;77.20
10089;DHT22;51898;49.864;8.550;2024-01-25T17:03:41;9.50;77.40
10089;DHT22;51898;49.864;8.550;2024-01-25T17:06:43;9.50;77.40
10089;DHT22;51898;49.864;8.550;2024-01-25T17:09:46;9.50;77.60
10089;DHT22;51898;49.864;8.550;2024-01-25T17:12:48;9.50;77.60
10089;DHT22;51898;49.864;8.550;2024-01-25T17:15:50;9.50;77.70
10089;DHT22;51898;49.864;8.550;2024-01-25T17:18:52;9.50;77.90
10089;DHT22;51898;49.864;8.550;2024-01-25T17:21:55;9.60;77.90
10089;DHT22;51898;49.864;8.550;2024-01-25T17:24:57;9.50;78.00
10089;DHT22;51898;49.864;8.550;2024-01-25T17:28:01;9.50;78.30
10089;DHT22;51898;49.864;8.550;2024-01-25T17:31:03;9.50;78.40
10089;DHT22;51898;49.864;8.550;2024-01-25T17:34:07;9.50;78.50
10089;DHT22;51898;49.864;8.550;2024-01-25T17:37:09;9.40;78.80
10089;DHT22;51898;49.864;8.550;2024-01-25T17:40:10;9.40;78.90
10089;DHT22;51898;49.864;8.550;2024-01-25T17:43:12;9.40;79.10
10089;DHT22;51898;49.864;8.550;2024-01-25T17:46:25;9.30;79.60
10089;DHT22;51898;49.864;8.550;2024-01-25T17:49:27;9.30;79.80
10089;DHT22;51898;49.864;8.550;2024-01-25T17:52:30;9.30;80.10
10089;DHT22;51898;49.864;8.550;2024-01-25T17:55:31;9.30;80.30
10089;DHT22;51898;49.864;8.550;2024-01-25T17:58:35;9.20;80.70
10089;DHT22;51898;49.864;8.550;2024-01-25T18:01:37;9.20;82.20
10089;DHT22;51898;49.864;8.550;2024-01-25T18:04:39;9.20;83.10
10089;DHT22;51898;49.864;8.550;2024-01-25T18:07:41;9.20;83.30
10089;DHT22;51898;49.864;8.550;2024-01-25T18:10:43;9.20;83.40
10089;DHT22;51898;49.864;8.550;2024-01-25T18:13:44;9.10;83.70
10089;DHT22;51898;49.864;8.550;2024-01-25T18:16:48;9.00;84.30
10089;DHT22;51898;49.864;8.550;2024-01-25T18:19:50;9.00;84.80
10089;DHT22;51898;49.864;8.550;2024-01-25T18:22:52;9.00;85.10
10089;DHT22;51898;49.864;8.550;2024-01-25T18:25:54;9.00;85.50
10089;DHT22;51898;49.864;8.550;2024-01-25T18:28:57;9.00;85.70
10089;DHT22;51898;49.864;8.550;2024-01-25T18:31:59;8.90;85.90
10089;DHT22;51898;49.864;8.550;2024-01-25T18:35:01;8.90;86.30
10089;DHT22;51898;49.864;8.550;2024-01-25T18:38:03;8.90;86.70
10089;DHT22;51898;49.864;8.550;2024-01-25T18:41:05;8.80;87.90
10089;DHT22;51898;49.864;8.550;2024-01-25T18:44:11;8.80;89.00
10089;DHT22;51898;49.864;8.550;2024-01-25T18:47:12;8.70;90.00
10089;DHT22;51898;49.864;8.550;2024-01-25T18:50:15;8.60;91.00
10089;DHT22;51898;49.864;8.550;2024-01-25T18:53:17;8.50;91.60
10089;DHT22;51898;49.864;8.550;2024-01-25T18:56:20;8.50;92.20
10089;DHT22;51898;49.864;8.550;2024-01-25T18:59:28;8.40;92.70
10089;DHT22;51898;49.864;8.550;2024-01-25T19:02:32;8.40;93.10
10089;DHT22;51898;49.864;8.550;2024-01-25T19:05:34;8.40;93.30
10089;DHT22;51898;49.864;8.550;2024-01-25T19:08:37;8.40;93.60
10089;DHT22;51898;49.864;8.550;2024-01-25T19:11:39;8.40;93.90
10089;DHT22;51898;49.864;8.550;2024-01-25T19:14:41;8.40;94.10
10089;DHT22;51898;49.864;8.550;2024-01-25T19:17:43;8.40;94.20
10089;DHT22;51898;49.864;8.550;2024-01-25T19:20:45;8.40;94.40
10089;DHT22;51898;49.864;8.550;2024-01-25T19:23:47;8.40;94.80
10089;DHT22;51898;49.864;8.550;2024-01-25T19:26:49;8.30;95.50
10089;DHT22;51898;49.864;8.550;2024-01-25T19:29:50;8.30;95.90